Bullhead City, AZ

11:45 PM MST on November 19, 2017 (GMT -0700)
Laughlin-Bullhead International

Weather History for KIFP - January, 2013

Change the Weather History Date:

Friday, January 4, 2013

  Actual Average Record
Temperature  
Mean Temperature 48 °F -  
Max Temperature 55 °F 62 °F 73 °F (2001)
Min Temperature 41 °F 46 °F 12 °F (2005)
Degree Days  
Heating Degree Days 17    
Moisture  
Dew Point 13 °F    
Average Humidity 25    
Maximum Humidity 39    
Minimum Humidity 14    
Precipitation  
Precipitation 0.00 in - - ()
Sea Level Pressure  
Sea Level Pressure 30.30 in    
Wind  
Wind Speed 16 mph (NNE)    
Max Wind Speed 23 mph    
Max Gust Speed 30 mph    
Visibility 10 miles    
Events      
Averages and records for this station are not official NWS values.
T = Trace of Precipitation, MM = Missing Value Source: NWS Daily Summary

Daily Weather History Graph

Daily Weather History Graph

Search for Another Location

Airport or City:

Trip Planner

Search our weather history database for the weather conditions in past years. The results will help you decide how hot, cold, wet, or windy it might be!

Date:

Astronomy

Jan. 04, 2013 Rise Set
Actual Time 7:47 AM MST 5:39 PM MST
Civil Twilight 7:19 AM MST 6:07 PM MST
Nautical Twilight 6:47 AM MST 6:39 PM MST
Astronomical Twilight 6:16 AM MST 7:10 PM MST
Moon 12:02 AM MST (1/4) 11:49 AM MST (1/4)
Length of Visible Light 10h 48m
Length of Day
9h 52m
Waning Gibbous, 54% of the Moon is Illuminated
Jan 4
Waning Gibbous
Jan 4
Last Quarter
Jan 11
New
Jan 18
First Quarter
Jan 26
Full

Hourly Weather History & Observations

Time (MST) Temp. Windchill Dew Point Humidity Pressure Visibility Wind Dir Wind Speed Gust Speed Precip Events Conditions
12:15 AM 48.2 °F - 10.4 °F 22% 30.26 in 10.0 mi NNE 19.6 mph - N/A   Clear
12:35 AM 48.2 °F - 14.0 °F 25% 30.27 in 10.0 mi NNE 16.1 mph - N/A   Clear
12:55 AM 48.2 °F - 14.0 °F 25% 30.27 in 10.0 mi NNE 15.0 mph 24.2 mph N/A   Clear
1:15 AM 48.2 °F - 10.4 °F 22% 30.26 in 10.0 mi NNE 20.7 mph - N/A   Clear
1:35 AM 48.2 °F - 10.4 °F 22% 30.26 in 10.0 mi NNE 23.0 mph 29.9 mph N/A   Clear
1:55 AM 48.2 °F - 14.0 °F 25% 30.26 in 10.0 mi NNE 23.0 mph 27.6 mph N/A   Clear
2:35 AM 48.2 °F - 10.4 °F 22% 30.28 in 10.0 mi NNE 23.0 mph - N/A   Clear
2:55 AM 48.2 °F - 14.0 °F 25% 30.28 in 10.0 mi NNE 21.9 mph 28.8 mph N/A   Clear
3:15 AM 46.4 °F 39.0 °F 14.0 °F 27% 30.29 in 10.0 mi NNE 19.6 mph 27.6 mph N/A   Clear
3:35 AM 46.4 °F 39.2 °F 12.2 °F 25% 30.29 in 10.0 mi North 18.4 mph 24.2 mph N/A   Clear
3:55 AM 46.4 °F 39.0 °F 14.0 °F 27% 30.29 in 10.0 mi NNE 19.6 mph - N/A   Clear
4:15 AM 46.4 °F 39.5 °F 14.0 °F 27% 30.30 in 10.0 mi NNE 17.3 mph - N/A   Clear
4:35 AM 46.4 °F 39.2 °F 14.0 °F 27% 30.29 in 10.0 mi NNE 18.4 mph - N/A   Clear
4:55 AM 46.4 °F 39.0 °F 14.0 °F 27% 30.29 in 10.0 mi NNE 19.6 mph - N/A   Clear
5:15 AM 44.6 °F 37.8 °F 15.8 °F 31% 30.30 in 10.0 mi NNE 15.0 mph - N/A   Clear
5:35 AM 44.6 °F 37.2 °F 15.8 °F 31% 30.30 in 10.0 mi NNE 17.3 mph 23.0 mph N/A   Clear
5:55 AM 44.6 °F 36.9 °F 15.8 °F 31% 30.30 in 10.0 mi NNE 18.4 mph 24.2 mph N/A   Clear
6:15 AM 44.6 °F 38.1 °F 17.6 °F 34% 30.31 in 10.0 mi NNE 13.8 mph - N/A   Clear
6:35 AM 42.8 °F 35.8 °F 17.6 °F 36% 30.31 in 10.0 mi NNE 13.8 mph - N/A   Clear
6:55 AM 44.6 °F 37.8 °F 15.8 °F 31% 30.32 in 10.0 mi NNE 15.0 mph 20.7 mph N/A   Clear
7:15 AM 42.8 °F 35.4 °F 15.8 °F 34% 30.32 in 10.0 mi NNE 15.0 mph - N/A   Clear
7:35 AM 41.0 °F 33.9 °F 17.6 °F 39% 30.33 in 10.0 mi NNE 12.7 mph - N/A   Clear
7:55 AM 41.0 °F 34.7 °F 17.6 °F 39% 30.33 in 10.0 mi NNE 10.4 mph - N/A   Clear
8:15 AM 42.8 °F 34.8 °F 15.8 °F 34% 30.33 in 10.0 mi NNE 17.3 mph 20.7 mph N/A   Clear
8:35 AM 42.8 °F 35.4 °F 15.8 °F 34% 30.34 in 10.0 mi NNE 15.0 mph 19.6 mph N/A   Clear
8:55 AM 44.6 °F 37.8 °F 15.8 °F 31% 30.35 in 10.0 mi NNE 15.0 mph - N/A   Clear
9:15 AM 44.6 °F 37.8 °F 15.8 °F 31% 30.36 in 10.0 mi NNE 15.0 mph - N/A   Clear
9:35 AM 44.6 °F 37.8 °F 17.6 °F 34% 30.37 in 10.0 mi North 15.0 mph - N/A   Clear
9:55 AM 44.6 °F 39.2 °F 17.6 °F 34% 30.37 in 10.0 mi NNE 10.4 mph - N/A   Clear
10:15 AM 46.4 °F 40.4 °F 14.0 °F 27% 30.37 in 10.0 mi NNE 13.8 mph 20.7 mph N/A   Clear
10:35 AM 48.2 °F - 10.4 °F 22% 30.37 in 10.0 mi NNE 17.3 mph - N/A   Clear
10:55 AM 48.2 °F - 14.0 °F 25% 30.37 in 10.0 mi NNE 17.3 mph 20.7 mph N/A   Clear
11:15 AM 50.0 °F - 12.2 °F 22% 30.36 in 10.0 mi North 19.6 mph 24.2 mph N/A   Clear
11:35 AM 50.0 °F - 14.0 °F 24% 30.36 in 10.0 mi North 15.0 mph 23.0 mph N/A   Clear
11:55 AM 50.0 °F - 12.2 °F 22% 30.35 in 10.0 mi North 19.6 mph 24.2 mph N/A   Clear
12:15 PM 51.8 °F - 12.2 °F 21% 30.33 in 10.0 mi North 18.4 mph 24.2 mph N/A   Clear
12:35 PM 51.8 °F - 14.0 °F 22% 30.32 in 10.0 mi North 20.7 mph 26.5 mph N/A   Clear
12:55 PM 53.6 °F - 14.0 °F 21% 30.30 in 10.0 mi North 20.7 mph - N/A   Clear
1:15 PM 53.6 °F - 10.4 °F 18% 30.29 in 10.0 mi North 15.0 mph 27.6 mph N/A   Clear
1:35 PM 53.6 °F - 10.4 °F 18% 30.28 in 10.0 mi North 17.3 mph - N/A   Clear
1:55 PM 55.4 °F - 12.2 °F 18% 30.27 in 10.0 mi North 15.0 mph - N/A   Clear
2:15 PM 55.4 °F - 10.4 °F 17% 30.26 in 10.0 mi North 16.1 mph - N/A   Clear
2:35 PM 55.4 °F - 10.4 °F 17% 30.26 in 10.0 mi North 17.3 mph 20.7 mph N/A   Clear
2:55 PM 55.4 °F - 8.6 °F 15% 30.25 in 10.0 mi NNW 18.4 mph - N/A   Clear
3:15 PM 55.4 °F - 8.6 °F 15% 30.26 in 10.0 mi North 16.1 mph - N/A   Clear
3:35 PM 55.4 °F - 8.6 °F 15% 30.26 in 10.0 mi North 15.0 mph - N/A   Clear
3:55 PM 55.4 °F - 6.8 °F 14% 30.26 in 10.0 mi North 15.0 mph - N/A   Clear
4:15 PM 55.4 °F - 8.6 °F 15% 30.26 in 10.0 mi North 17.3 mph - N/A   Clear
4:35 PM 55.4 °F - 8.6 °F 15% 30.25 in 10.0 mi North 13.8 mph - N/A   Clear
4:55 PM 55.4 °F - 8.6 °F 15% 30.25 in 10.0 mi North 13.8 mph - N/A   Clear
5:15 PM 55.4 °F - 8.6 °F 15% 30.25 in 10.0 mi North 13.8 mph - N/A   Clear
5:35 PM 55.4 °F - 8.6 °F 15% 30.25 in 10.0 mi North 11.5 mph - N/A   Clear
5:55 PM 53.6 °F - 8.6 °F 16% 30.25 in 10.0 mi NNE 11.5 mph - N/A   Clear
6:15 PM 53.6 °F - 8.6 °F 16% 30.26 in 10.0 mi NNE 9.2 mph - N/A   Clear
6:35 PM 51.8 °F - 10.4 °F 19% 30.27 in 10.0 mi NE 8.1 mph - N/A   Clear
6:55 PM 50.0 °F - 14.0 °F 24% 30.27 in 10.0 mi NE 8.1 mph - N/A   Clear
7:15 PM 50.0 °F - 15.8 °F 26% 30.27 in 10.0 mi NE 8.1 mph - N/A   Clear
7:35 PM 50.0 °F - 15.8 °F 26% 30.28 in 10.0 mi NE 5.8 mph - N/A   Clear
7:55 PM 48.2 °F - 15.8 °F 27% 30.28 in 10.0 mi NE 6.9 mph - N/A   Clear
8:15 PM 48.2 °F - 15.8 °F 27% 30.28 in 10.0 mi NNE 9.2 mph - N/A   Clear
8:35 PM 48.2 °F - 15.8 °F 27% 30.28 in 10.0 mi North 9.2 mph - N/A   Clear
8:55 PM 46.4 °F 42.9 °F 15.8 °F 29% 30.29 in 10.0 mi East 6.9 mph - N/A   Clear
9:15 PM 46.4 °F 42.9 °F 15.8 °F 29% 30.29 in 10.0 mi ENE 6.9 mph - N/A   Clear
9:35 PM 46.4 °F 42.4 °F 14.0 °F 27% 30.29 in 10.0 mi NE 8.1 mph - N/A   Clear
9:55 PM 46.4 °F 44.3 °F 14.0 °F 27% 30.30 in 10.0 mi NE 4.6 mph - N/A   Clear
10:15 PM 44.6 °F 42.2 °F 14.0 °F 29% 30.31 in 10.0 mi NNE 4.6 mph - N/A   Clear
10:35 PM 44.6 °F 42.2 °F 14.0 °F 29% 30.31 in 10.0 mi NNE 4.6 mph - N/A   Clear
10:55 PM 44.6 °F - 12.2 °F 27% 30.31 in 10.0 mi Calm Calm - N/A   Clear
11:15 PM 44.6 °F 42.2 °F 15.8 °F 31% 30.31 in 10.0 mi NNE 4.6 mph - N/A   Clear
11:35 PM 41.0 °F 39.0 °F 14.0 °F 33% 30.32 in 10.0 mi NE 3.5 mph - N/A   Clear
11:55 PM 41.0 °F 37.1 °F 12.2 °F 31% 30.32 in 10.0 mi NNE 5.8 mph - N/A   Clear